Flight Track Log - Related Links

Times and Time Zones

All times are in EDT time to prevent confusion due to time zone crossing. See the ENY3257 flight status page for this flight to view local times or setup timezone preferences in your user account.

Time Position Orientation Groundspeed Altitude Reporting Facility
EDT Latitude Longitude Course Direction KTS MPH feet Rate Location/Type
Tue 09:23:33 PM 40.7500 -73.8333 201° Southwest 153 176 1,600  Level New York TRACON
Tue 09:24:27 PM 40.7000 -73.8333 180° South 204 235 3,200 2,053 Climbing New York TRACON
Tue 09:25:00 PM 40.4619 -74.0144 199° South  Level FlightAware Approximate
Tue 09:25:27 PM 40.6500 -73.8667 207° Southwest 243 280 5,500  Level New York TRACON
Tue 09:26:00 PM 40.3574 -74.0630 201° Southwest  Level FlightAware Approximate
Tue 09:26:27 PM 40.5833 -73.9167 210° Southwest 271 312 7,600  Level New York TRACON
Tue 09:27:00 PM 40.2538 -74.1148 201° Southwest  Level FlightAware Approximate
Tue 09:27:27 PM 40.5167 -73.9667 210° Southwest 287 330 10,500  Level New York TRACON
Tue 09:28:00 PM 40.1521 -74.1656 201° Southwest  Level FlightAware Approximate
Tue 09:28:21 PM 40.4500 -74.0167 210° Southwest 323 372 11,800  Level New York TRACON
Tue 09:29:53 PM 40.3211 -74.0894 203° Southwest 372 428 13,100 1,041 Climbing New York Center
Tue 09:32:00 PM 40.1033 -74.2028 202° Southwest 399 459 15,600 1,219 Climbing Washington Center
Tue 09:33:00 PM 39.9956 -74.2619 203° Southwest 416 479 16,900 1,450 Climbing Washington Center
Tue 09:34:00 PM 39.8989 -74.3528 216° Southwest 421 484 18,500 1,339 Climbing Washington Center
Tue 09:35:01 PM 39.8058 -74.4489 218° Southwest 434 499 19,600 1,082 Climbing Washington Center
Tue 09:36:02 PM 39.7217 -74.5608 226° Southwest 439 505 20,700 1,041 Climbing Washington Center
Tue 09:37:02 PM 39.6350 -74.6753 226° Southwest 439 505 21,700 966 Climbing Washington Center
Tue 09:38:00 PM 39.5483 -74.7894 225° Southwest 439 505 22,600 908 Climbing Washington Center
Tue 09:39:01 PM 39.4594 -74.9008 224° Southwest 439 505 23,500 836 Climbing Washington Center
Tue 09:40:02 PM 39.3725 -75.0169 226° Southwest 444 511 24,300 807 Climbing Washington Center
Tue 09:41:00 PM 39.2792 -75.1439 226° Southwest 444 511 25,100 807 Climbing Washington Center
Tue 09:42:01 PM 39.1881 -75.2594 225° Southwest 449 517 25,900 443 Climbing Washington Center
Tue 09:43:02 PM 39.0986 -75.3778 226° Southwest 454 522 26,000 50 Climbing Washington Center
Tue 09:44:02 PM 39.0069 -75.4928 224° Southwest 460 529 26,000  Level Washington Center
Tue 09:45:00 PM 38.9175 -75.6075 225° Southwest 460 529 26,000  Level Washington Center
Tue 09:46:01 PM 38.8528 -75.7517 240° Southwest 460 529 26,000  Level Washington Center
Tue 09:47:01 PM 38.7525 -75.8553 219° Southwest 451 519 26,000  Level Washington Center
Tue 09:48:02 PM 38.6481 -75.9506 215° Southwest 458 527 26,000  Level Washington Center
Tue 09:49:02 PM 38.5414 -76.0428 214° Southwest 469 540 26,000  Level Washington Center
Tue 09:50:00 PM 38.4347 -76.1350 214° Southwest 469 540 26,000  Level Washington Center
Tue 09:51:01 PM 38.3361 -76.2269 216° Southwest 477 549 26,000  Level Washington Center
Tue 09:52:02 PM 38.2208 -76.3292 215° Southwest 472 543 26,000  Level Washington Center
Tue 09:53:00 PM 38.1161 -76.4206 214° Southwest 472 543 26,000  Level Washington Center
Tue 09:54:00 PM 38.0089 -76.5194 216° Southwest 472 543 26,000 -246 Level Washington Center
Tue 09:55:02 PM 37.9039 -76.6128 215° Southwest 472 543 25,500 -787 Descending Washington Center
Tue 09:56:02 PM 37.7947 -76.7086 215° Southwest 472 543 24,400 -1,017 Descending Washington Center
Tue 09:57:00 PM 37.6894 -76.7989 214° Southwest 472 543 23,500 -966 Descending Washington Center
Tue 09:58:00 PM 37.5864 -76.8917 216° Southwest 466 536 22,500 -744 Descending Washington Center
Tue 09:59:01 PM 37.4811 -76.9789 213° Southwest 472 543 22,000 -248 Descending Washington Center
Tue 10:00:01 PM 37.3758 -77.0736 216° Southwest 472 543 22,000  Level Washington Center
Tue 10:01:00 PM 37.2786 -77.1528 213° Southwest 465 535 22,000  Level Washington Center
Tue 10:02:01 PM 37.1608 -77.2389 210° Southwest 463 533 22,000 -397 Level Washington Center
Tue 10:03:01 PM 37.0614 -77.3331 217° Southwest 458 527 21,200 -1,033 Descending Washington Center
Tue 10:04:03 PM 36.9642 -77.4244 217° Southwest 458 527 19,900 -1,289 Descending Washington Center
Tue 10:05:02 PM 36.8667 -77.5183 218° Southwest 453 521 18,600 -1,261 Descending Washington Center
Tue 10:06:02 PM 36.7714 -77.6067 217° Southwest 440 506 17,400 -1,119 Descending Washington Center
Tue 10:07:00 PM 36.6758 -77.6975 217° Southwest 440 506 16,400 -966 Descending Washington Center
Tue 10:08:00 PM 36.5783 -77.7853 216° Southwest 435 501 15,500 -947 Descending Washington Center
Tue 10:08:54 PM 36.4933 -77.8681 218° Southwest 431 496 14,600 -1,000 Descending Washington Center
Tue 10:09:12 PM 36.4636 -77.8931 214° Southwest 429 494 14,300 -896 Descending Washington Center
Tue 10:10:01 PM 36.4061 -77.9533 220° Southwest 435 501 13,600 -984 Descending Washington Center
Tue 10:10:13 PM 36.3700 -77.9806 211° Southwest 417 480 13,300 -1,000 Descending Washington Center
Tue 10:11:01 PM 36.3147 -78.0383 220° Southwest 424 488 12,600 -984 Descending Washington Center
Tue 10:11:14 PM 36.2808 -78.0631 210° Southwest 410 472 12,300 -1,017 Descending Washington Center
Tue 10:12:00 PM 36.2275 -78.1206 221° Southwest 418 481 11,600 -1,082 Descending Washington Center
Tue 10:12:15 PM 36.2058 -78.1533 231° Southwest 370 426 11,200 -1,900 Descending Washington Center
Tue 10:13:00 PM 36.1731 -78.2242 240° Southwest 359 413 9,700 -2,000 Descending Washington Center
Tue 10:13:15 PM 36.1619 -78.2497 242° Southwest 296 341 9,200 -1,792 Descending Washington Center
Tue 10:14:17 PM 36.1225 -78.3358 240° Southwest 280 322 7,400 -1,846 Descending Washington Center
Tue 10:15:12 PM 36.0875 -78.4117 240° Southwest 279 321 5,600 8,505 Descending Washington Center
Tue 10:16:00 PM 36.0631 -78.4725 244° Southwest 271 312 22,000 -1,800 Climbing Washington Center
Tue 10:16:12 PM 36.0542 -78.4900 238° Southwest 253 291 3,800 -19,000 Descending Washington Center
Tue 10:17:00 PM 36.0300 -78.5456 242° Southwest 266 306 3,000 -800 Descending Washington Center
Tue 10:17:12 PM 36.0233 -78.5583 237° Southwest 236 272 3,000  Level Washington Center
Tue 10:18:00 PM 36.0094 -78.6092 251° West 235 270 3,000  Level Washington Center
Tue 10:18:18 PM 36.0006 -78.6344 247° West 191 220 3,000 -380 Level Washington Center
Tue 10:19:19 PM 35.9681 -78.6869 233° Southwest 184 212 2,500 -634 Descending Washington Center
Tue 10:20:21 PM 35.9397 -78.7244 227° Southwest 134 154 1,700 -694 Descending Washington Center
Tue 10:21:20 PM 35.9161 -78.7517 223° Southwest 113 130 1,100 -610 Descending Washington Center

Login

Don't have an account? Register now (free) for customized features, flight alerts, and more!